Time;durP1;ratioP1;P1;durP2;ratioP2;P2;SDS_P1;SDS_P2;PMS_P1;PMS_P2;Temp;Humidity;BMP_temperature;BMP_pressure;BME280_temperature;BME280_humidity;BME280_pressure;Samples;Min_cycle;Max_cycle;Signal;HPM_P1;HPM_P2
2022/07/09 00:00:08;;;;;;;10.07;3.80;;;15.50;99.90;;;;;;5053417;28;20258;-59
2022/07/09 00:02:37;;;;;;;10.30;4.30;;;15.50;99.90;;;;;;5052919;28;20270;-59
2022/07/09 00:05:06;;;;;;;9.73;3.67;;;15.50;99.90;;;;;;5053422;28;20240;-59
2022/07/09 00:07:39;;;;;;;9.60;3.57;;;15.50;99.90;;;;;;5043660;28;20231;-59
2022/07/09 00:10:07;;;;;;;11.70;4.37;;;15.40;99.90;;;;;;5053486;28;20554;-60
2022/07/09 00:12:36;;;;;;;8.37;3.80;;;15.50;99.90;;;;;;5054892;28;20224;-59
2022/07/09 00:15:04;;;;;;;11.80;3.93;;;15.40;99.90;;;;;;5052910;28;20226;-59
2022/07/09 00:17:32;;;;;;;8.37;3.90;;;15.40;99.90;;;;;;5051815;28;20266;-59
2022/07/09 00:20:04;;;;;;;10.70;4.57;;;15.40;99.90;;;;;;5053182;28;20714;-58
2022/07/09 00:22:33;;;;;;;11.17;4.60;;;15.40;99.90;;;;;;5052981;28;20231;-59
2022/07/09 00:25:03;;;;;;;11.70;4.33;;;15.40;99.90;;;;;;5053359;28;20238;-59
2022/07/09 00:27:31;;;;;;;7.50;3.47;;;15.40;99.90;;;;;;5051209;28;20223;-59
2022/07/09 00:29:59;;;;;;;8.70;3.73;;;15.40;99.90;;;;;;5052987;28;20216;-58
2022/07/09 00:32:27;;;;;;;9.07;4.00;;;15.40;99.90;;;;;;5052349;28;20227;-59
2022/07/09 00:34:55;;;;;;;10.77;4.40;;;15.40;99.90;;;;;;5052946;28;20220;-59
2022/07/09 00:37:24;;;;;;;10.20;4.40;;;15.40;99.90;;;;;;5051387;28;20235;-59
2022/07/09 00:39:52;;;;;;;11.63;4.50;;;15.40;99.90;;;;;;5053111;28;20567;-59
2022/07/09 00:42:21;;;;;;;6.03;3.70;;;15.40;99.90;;;;;;5054845;28;20220;-58
2022/07/09 00:44:49;;;;;;;8.17;4.20;;;15.40;99.90;;;;;;5053066;28;20240;-60
2022/07/09 00:47:17;;;;;;;8.90;3.90;;;15.40;99.90;;;;;;5051119;28;20232;-59
2022/07/09 00:49:48;;;;;;;7.60;4.20;;;15.40;99.90;;;;;;5052613;28;20269;-59
2022/07/09 00:52:17;;;;;;;7.27;3.77;;;15.40;99.90;;;;;;5052762;28;20223;-59
2022/07/09 00:54:46;;;;;;;9.03;3.73;;;15.50;99.90;;;;;;5052612;28;20220;-60
2022/07/09 00:57:14;;;;;;;11.27;4.10;;;15.50;99.90;;;;;;5051327;28;20228;-59
2022/07/09 00:59:44;;;;;;;7.17;3.50;;;15.50;99.90;;;;;;5052260;28;20216;-59
2022/07/09 01:02:12;;;;;;;10.27;3.80;;;15.50;99.90;;;;;;5052329;28;20235;-59
2022/07/09 01:04:41;;;;;;;9.17;3.90;;;15.50;99.90;;;;;;5052444;28;20239;-58
2022/07/09 01:07:09;;;;;;;7.50;3.60;;;15.50;99.90;;;;;;5048504;28;20232;-59
2022/07/09 01:09:37;;;;;;;7.73;3.73;;;15.50;99.90;;;;;;5051957;28;20220;-59
2022/07/09 01:12:07;;;;;;;8.77;4.03;;;15.50;99.90;;;;;;5054839;28;20216;-59
2022/07/09 01:14:35;;;;;;;8.17;3.90;;;15.50;99.90;;;;;;5052158;28;20217;-60
2022/07/09 01:17:06;;;;;;;10.67;4.20;;;15.40;99.90;;;;;;5051237;28;20239;-58
2022/07/09 01:19:34;;;;;;;8.40;4.03;;;15.40;99.90;;;;;;5051713;28;20660;-59
2022/07/09 01:22:05;;;;;;;8.87;4.17;;;15.40;99.90;;;;;;5052555;28;20269;-59
2022/07/09 01:24:34;;;;;;;8.33;3.90;;;15.50;99.90;;;;;;5052341;28;20225;-59
2022/07/09 01:27:03;;;;;;;10.07;3.60;;;15.50;99.90;;;;;;5051460;28;20252;-59
2022/07/09 01:29:31;;;;;;;6.63;3.60;;;15.50;99.90;;;;;;5052136;28;20253;-59
2022/07/09 01:32:00;;;;;;;9.10;3.80;;;15.50;99.90;;;;;;5053523;28;20750;-58
2022/07/09 01:34:28;;;;;;;9.57;4.33;;;15.50;99.90;;;;;;5056357;28;20220;-59
2022/07/09 01:36:56;;;;;;;9.10;3.90;;;15.50;99.90;;;;;;5056113;28;20679;-59
2022/07/09 01:39:25;;;;;;;7.80;3.80;;;15.50;99.90;;;;;;5055312;28;20825;-58
2022/07/09 01:41:53;;;;;;;8.07;3.73;;;15.40;99.90;;;;;;5058436;28;20227;-59
2022/07/09 01:44:22;;;;;;;9.40;3.87;;;15.50;99.90;;;;;;5055826;28;20224;-58
2022/07/09 01:46:50;;;;;;;12.77;3.60;;;15.50;99.90;;;;;;5056201;28;20319;-59
2022/07/09 01:49:18;;;;;;;7.70;4.13;;;15.50;99.90;;;;;;5054857;28;20305;-57
2022/07/09 01:51:46;;;;;;;6.97;3.73;;;15.50;99.90;;;;;;5036171;28;20224;-59
2022/07/09 01:54:14;;;;;;;6.47;3.80;;;15.50;99.90;;;;;;5040592;28;20218;-59
2022/07/09 01:56:44;;;;;;;7.80;4.00;;;15.50;99.90;;;;;;5055768;28;20223;-58
2022/07/09 01:59:12;;;;;;;7.07;4.07;;;15.50;99.90;;;;;;5054703;28;20676;-59
2022/07/09 02:01:40;;;;;;;7.27;3.57;;;15.50;99.90;;;;;;5055173;28;20240;-59
2022/07/09 02:04:08;;;;;;;8.83;4.37;;;15.40;99.90;;;;;;5056118;28;20234;-59
2022/07/09 02:06:36;;;;;;;10.80;4.13;;;15.40;99.90;;;;;;5054899;28;20219;-59
2022/07/09 02:09:04;;;;;;;9.97;4.60;;;15.40;99.90;;;;;;5052559;28;20228;-59
2022/07/09 02:11:32;;;;;;;8.73;4.43;;;15.40;99.90;;;;;;5057296;28;20228;-59
2022/07/09 02:14:02;;;;;;;9.57;4.57;;;15.40;99.90;;;;;;5055569;28;20236;-59
2022/07/09 02:16:33;;;;;;;9.50;4.50;;;15.40;99.90;;;;;;5055152;28;20278;-60
2022/07/09 02:19:02;;;;;;;11.87;4.83;;;15.40;99.90;;;;;;5052633;28;20277;-59
2022/07/09 02:21:30;;;;;;;8.17;4.33;;;15.40;99.90;;;;;;5055279;28;20228;-59
2022/07/09 02:23:58;;;;;;;9.63;4.70;;;15.40;99.90;;;;;;5055147;28;20239;-59
2022/07/09 02:26:27;;;;;;;7.10;4.43;;;15.40;99.90;;;;;;5055410;28;20228;-58
2022/07/09 02:28:56;;;;;;;11.93;4.93;;;15.40;99.90;;;;;;5053660;28;20224;-59
2022/07/09 02:31:26;;;;;;;7.83;4.87;;;15.40;99.90;;;;;;5054932;28;20242;-59
2022/07/09 02:33:54;;;;;;;10.53;5.10;;;15.40;99.90;;;;;;5055263;28;20230;-59
2022/07/09 02:36:22;;;;;;;8.70;4.67;;;15.40;99.90;;;;;;5055538;28;20216;-59
2022/07/09 02:38:51;;;;;;;8.13;4.70;;;15.30;99.90;;;;;;5054178;28;20211;-59
2022/07/09 02:41:19;;;;;;;10.50;5.27;;;15.30;99.90;;;;;;5057284;28;20224;-59
2022/07/09 02:43:47;;;;;;;9.03;5.20;;;15.30;99.90;;;;;;5054069;28;20224;-59
2022/07/09 02:46:15;;;;;;;9.13;4.93;;;15.30;99.90;;;;;;5055259;28;20238;-60
2022/07/09 02:48:45;;;;;;;10.77;4.73;;;15.40;99.90;;;;;;5053890;28;20223;-59
2022/07/09 02:51:13;;;;;;;7.87;4.77;;;15.40;99.90;;;;;;5055226;28;20242;-59
2022/07/09 02:53:41;;;;;;;9.80;4.80;;;15.40;99.90;;;;;;5054623;28;20259;-58
2022/07/09 02:56:09;;;;;;;8.40;4.90;;;15.40;99.90;;;;;;5055286;28;20219;-59
2022/07/09 02:58:37;;;;;;;10.43;5.17;;;15.40;99.90;;;;;;5047922;28;20224;-59
2022/07/09 03:01:06;;;;;;;10.47;4.47;;;15.40;99.90;;;;;;5054681;28;20228;-58
2022/07/09 03:03:35;;;;;;;8.73;4.27;;;15.40;99.90;;;;;;5054791;28;20223;-59
2022/07/09 03:06:07;;;;;;;9.77;4.80;;;15.40;99.90;;;;;;5055533;28;20240;-59
2022/07/09 03:08:36;;;;;;;9.80;4.70;;;15.40;99.90;;;;;;5053494;28;20307;-59
2022/07/09 03:11:06;;;;;;;10.70;4.97;;;15.40;99.90;;;;;;5057028;28;20710;-59
2022/07/09 03:13:39;;;;;;;7.60;4.47;;;15.50;99.90;;;;;;5056919;28;20266;-59
2022/07/09 03:16:07;;;;;;;6.50;4.37;;;15.50;99.90;;;;;;5036054;28;20239;-59
2022/07/09 03:18:37;;;;;;;7.83;4.33;;;15.50;99.90;;;;;;5047343;28;20587;-59
2022/07/09 03:21:11;;;;;;;9.03;4.70;;;15.50;99.90;;;;;;5054675;28;20721;-59
2022/07/09 03:23:39;;;;;;;8.13;4.50;;;15.50;99.90;;;;;;5056236;28;20226;-59
2022/07/09 03:26:07;;;;;;;6.43;4.77;;;15.50;99.90;;;;;;5054627;28;20672;-59
2022/07/09 03:28:36;;;;;;;8.00;4.77;;;15.50;99.90;;;;;;5052983;28;20226;-59
2022/07/09 03:31:05;;;;;;;8.20;4.43;;;15.50;99.90;;;;;;5054245;28;20319;-59
2022/07/09 03:33:34;;;;;;;7.30;4.67;;;15.50;99.90;;;;;;5054370;28;20229;-59
2022/07/09 03:36:02;;;;;;;7.17;4.67;;;15.50;99.90;;;;;;5054792;28;20318;-59
2022/07/09 03:38:31;;;;;;;7.20;4.57;;;15.50;99.90;;;;;;5052546;28;20319;-59
2022/07/09 03:41:00;;;;;;;9.30;4.67;;;15.50;99.90;;;;;;5053191;28;20704;-59
2022/07/09 03:43:29;;;;;;;7.93;4.93;;;15.50;99.90;;;;;;5055997;28;20258;-59
2022/07/09 03:45:58;;;;;;;6.17;4.33;;;15.50;99.90;;;;;;5054920;28;20250;-59
2022/07/09 03:48:27;;;;;;;9.53;4.40;;;15.50;99.90;;;;;;5061153;28;20231;-58
2022/07/09 03:50:55;;;;;;;6.30;4.20;;;15.50;99.90;;;;;;5053237;28;20234;-58
2022/07/09 03:53:25;;;;;;;8.77;4.43;;;15.60;99.90;;;;;;5054171;28;20332;-57
2022/07/09 03:55:55;;;;;;;8.30;4.07;;;15.50;99.90;;;;;;5054642;28;20307;-60
2022/07/09 03:58:23;;;;;;;7.80;4.57;;;15.50;99.90;;;;;;5053983;28;20266;-59
2022/07/09 04:00:52;;;;;;;9.37;4.80;;;15.50;99.90;;;;;;5053483;28;20238;-59
2022/07/09 04:03:20;;;;;;;12.43;5.07;;;15.50;99.90;;;;;;5054766;28;20628;-58
2022/07/09 04:05:48;;;;;;;9.63;4.60;;;15.50;99.90;;;;;;5053721;28;20576;-59
2022/07/09 04:08:17;;;;;;;9.20;4.30;;;15.50;99.90;;;;;;5059651;28;20227;-59
2022/07/09 04:10:45;;;;;;;11.70;5.17;;;15.50;99.90;;;;;;5053251;28;20224;-60
2022/07/09 04:13:14;;;;;;;8.73;5.17;;;15.50;99.90;;;;;;5053143;28;20410;-59
2022/07/09 04:15:42;;;;;;;8.37;4.87;;;15.50;99.90;;;;;;5053027;28;20222;-59
2022/07/09 04:18:10;;;;;;;9.63;5.30;;;15.50;99.90;;;;;;5051969;28;20232;-59
2022/07/09 04:20:38;;;;;;;8.40;5.40;;;15.50;99.90;;;;;;5052369;28;20216;-59
2022/07/09 04:23:06;;;;;;;8.20;4.67;;;15.60;99.90;;;;;;5053186;28;20232;-59
2022/07/09 04:25:35;;;;;;;12.37;5.87;;;15.60;99.90;;;;;;5053120;28;20228;-58
2022/07/09 04:28:05;;;;;;;7.20;4.97;;;15.60;99.90;;;;;;5051724;28;20278;-59
2022/07/09 04:30:34;;;;;;;10.77;5.10;;;15.60;99.90;;;;;;5052411;28;20251;-59
2022/07/09 04:33:02;;;;;;;6.47;4.90;;;15.70;99.90;;;;;;5053332;28;20234;-60
2022/07/09 04:35:31;;;;;;;6.63;4.70;;;15.60;99.90;;;;;;5052301;28;20216;-59
2022/07/09 04:37:59;;;;;;;8.07;5.07;;;15.60;99.90;;;;;;5048302;28;20239;-59
2022/07/09 04:40:27;;;;;;;9.07;5.10;;;15.70;99.90;;;;;;5052142;28;20234;-58
2022/07/09 04:42:55;;;;;;;9.67;5.23;;;15.70;99.90;;;;;;5052295;28;20232;-59
2022/07/09 04:45:24;;;;;;;9.80;5.17;;;15.70;99.90;;;;;;5052132;28;20235;-59
2022/07/09 04:47:53;;;;;;;8.80;5.07;;;15.70;99.90;;;;;;5053477;28;20309;-58
2022/07/09 04:50:21;;;;;;;11.13;5.40;;;15.70;99.90;;;;;;5050130;28;20232;-59
2022/07/09 04:52:49;;;;;;;8.57;5.60;;;15.70;99.90;;;;;;5052590;28;20247;-59
2022/07/09 04:55:17;;;;;;;8.33;4.90;;;15.70;99.90;;;;;;5052273;28;20261;-59
2022/07/09 04:57:46;;;;;;;9.17;4.77;;;15.70;99.90;;;;;;5053496;28;20695;-59
2022/07/09 05:00:15;;;;;;;8.37;4.90;;;15.70;99.90;;;;;;5051871;28;20557;-58
2022/07/09 05:03:18;;;;;;;11.50;5.37;;;15.70;99.90;;;;;;5052934;28;20235;-59
2022/07/09 05:05:47;;;;;;;10.33;5.23;;;15.70;99.90;;;;;;5051962;28;20242;-59
2022/07/09 05:08:18;;;;;;;7.73;4.67;;;15.80;99.90;;;;;;5051048;28;20227;-58
2022/07/09 05:10:46;;;;;;;9.57;5.83;;;15.80;99.90;;;;;;5052374;28;20224;-59
2022/07/09 05:13:14;;;;;;;10.30;5.90;;;15.80;99.90;;;;;;5052389;28;20227;-59
2022/07/09 05:15:42;;;;;;;7.30;5.83;;;15.80;99.90;;;;;;5051542;28;20226;-59
2022/07/09 05:18:11;;;;;;;9.30;6.07;;;15.80;99.90;;;;;;5051092;28;20628;-59
2022/07/09 05:20:42;;;;;;;10.67;6.10;;;15.80;99.90;;;;;;5059578;28;20220;-60
2022/07/09 05:23:11;;;;;;;9.60;5.87;;;15.90;99.90;;;;;;5052613;28;20227;-59
2022/07/09 05:25:39;;;;;;;8.47;5.80;;;15.90;99.90;;;;;;5052310;28;20235;-59
2022/07/09 05:28:07;;;;;;;10.10;5.90;;;16.00;99.90;;;;;;5051573;28;20370;-59
2022/07/09 05:30:37;;;;;;;8.97;6.40;;;16.00;99.90;;;;;;5051290;28;20228;-59
2022/07/09 05:33:05;;;;;;;11.47;6.47;;;16.00;99.90;;;;;;5052429;28;20741;-59
2022/07/09 05:35:33;;;;;;;11.47;6.93;;;16.00;99.90;;;;;;5052030;28;20227;-59
2022/07/09 05:38:03;;;;;;;7.47;6.30;;;16.00;99.90;;;;;;5051066;28;20219;-58
2022/07/09 05:40:31;;;;;;;8.20;6.80;;;16.00;99.90;;;;;;5054634;28;20231;-59
2022/07/09 05:42:59;;;;;;;10.30;6.50;;;16.00;99.90;;;;;;5052127;28;20301;-59
2022/07/09 05:45:27;;;;;;;11.60;7.00;;;16.00;99.90;;;;;;5051857;28;20239;-59
2022/07/09 05:47:55;;;;;;;10.80;7.03;;;16.00;99.90;;;;;;5051198;28;20228;-59
2022/07/09 05:50:24;;;;;;;10.77;6.93;;;16.10;99.90;;;;;;5052051;28;20692;-59
2022/07/09 05:52:52;;;;;;;9.70;7.03;;;16.20;99.90;;;;;;5052099;28;20252;-59
2022/07/09 05:55:21;;;;;;;11.00;7.67;;;16.20;99.90;;;;;;5052127;28;20223;-59
2022/07/09 05:57:50;;;;;;;13.03;7.73;;;16.20;99.90;;;;;;5052187;28;20228;-59
2022/07/09 06:00:19;;;;;;;10.70;7.60;;;16.20;99.90;;;;;;5050854;28;20224;-59
2022/07/09 06:02:47;;;;;;;10.50;7.83;;;16.30;99.90;;;;;;5051978;28;20225;-59
2022/07/09 06:05:19;;;;;;;11.93;7.43;;;16.30;99.90;;;;;;5052088;28;20699;-59
2022/07/09 06:07:47;;;;;;;9.17;7.33;;;16.40;99.90;;;;;;5050635;28;20271;-59
2022/07/09 06:10:17;;;;;;;9.73;7.30;;;16.40;99.90;;;;;;5051883;28;20216;-59
2022/07/09 06:12:46;;;;;;;8.50;6.97;;;16.50;99.90;;;;;;5051601;28;20237;-59
2022/07/09 06:15:15;;;;;;;10.23;7.43;;;16.50;99.90;;;;;;5052063;28;20637;-59
2022/07/09 06:17:43;;;;;;;8.80;6.97;;;16.60;99.90;;;;;;5052726;28;20258;-59
2022/07/09 06:20:11;;;;;;;12.90;7.13;;;16.60;99.90;;;;;;5055301;28;20219;-59
2022/07/09 06:22:39;;;;;;;9.90;7.87;;;16.70;99.90;;;;;;5054851;28;20234;-59
2022/07/09 06:25:08;;;;;;;10.77;7.20;;;16.70;99.90;;;;;;5055437;28;20285;-59
2022/07/09 06:27:36;;;;;;;8.67;6.80;;;16.70;99.90;;;;;;5039394;28;20264;-59
2022/07/09 06:30:08;;;;;;;9.20;6.53;;;16.80;99.90;;;;;;5054566;28;20232;-59
2022/07/09 06:32:37;;;;;;;9.37;6.47;;;16.90;99.90;;;;;;5047127;28;20247;-59
2022/07/09 06:35:06;;;;;;;9.20;6.60;;;17.00;99.90;;;;;;5055847;28;20239;-59
2022/07/09 06:37:34;;;;;;;17.23;7.33;;;17.20;99.90;;;;;;5053956;28;20224;-59
2022/07/09 06:40:02;;;;;;;9.03;6.40;;;17.30;99.90;;;;;;5055105;28;20219;-59
2022/07/09 06:42:30;;;;;;;10.20;6.90;;;17.30;99.90;;;;;;5054959;28;20256;-59
2022/07/09 06:45:12;;;;;;;10.33;6.90;;;17.40;99.90;;;;;;5053918;28;20762;-59
2022/07/09 06:47:40;;;;;;;8.77;6.57;;;17.40;99.90;;;;;;5053764;28;20255;-59
2022/07/09 06:50:11;;;;;;;10.07;7.17;;;17.40;99.90;;;;;;5054175;28;20323;-59
2022/07/09 06:52:39;;;;;;;11.83;7.90;;;17.40;99.90;;;;;;5047213;28;20703;-60
2022/07/09 06:55:08;;;;;;;10.17;6.83;;;17.50;99.90;;;;;;5054298;28;20638;-59
2022/07/09 06:57:36;;;;;;;9.90;5.80;;;17.60;99.90;;;;;;5050283;28;20223;-59
2022/07/09 07:00:06;;;;;;;6.63;5.57;;;17.70;99.90;;;;;;5053743;28;20229;-59
2022/07/09 07:02:35;;;;;;;8.73;5.93;;;17.70;99.90;;;;;;5053830;28;20776;-60
2022/07/09 07:05:04;;;;;;;7.10;6.10;;;17.80;99.90;;;;;;5054564;28;20697;-60
2022/07/09 07:07:33;;;;;;;11.13;6.33;;;17.80;99.90;;;;;;5052555;28;20220;-59
2022/07/09 07:10:01;;;;;;;6.23;5.37;;;17.90;99.90;;;;;;5055186;28;20225;-60
2022/07/09 07:12:29;;;;;;;8.10;5.70;;;18.10;99.90;;;;;;5054387;28;20227;-59
2022/07/09 07:14:57;;;;;;;6.50;5.00;;;18.20;99.90;;;;;;5054811;28;20268;-60
2022/07/09 07:17:25;;;;;;;6.47;5.20;;;18.30;99.90;;;;;;5054242;28;20229;-57
2022/07/09 07:19:55;;;;;;;7.53;4.87;;;18.40;99.90;;;;;;5057562;28;20227;-59
2022/07/09 07:22:23;;;;;;;6.70;5.00;;;18.50;99.90;;;;;;5058088;28;20237;-60
2022/07/09 07:24:51;;;;;;;7.43;5.17;;;18.50;99.90;;;;;;5058368;28;20696;-60
2022/07/09 07:27:19;;;;;;;7.27;4.57;;;18.50;99.90;;;;;;5055534;28;20245;-62
2022/07/09 07:29:47;;;;;;;5.00;4.57;;;18.60;99.90;;;;;;5057753;28;20234;-59
2022/07/09 07:32:15;;;;;;;6.00;4.67;;;18.60;99.90;;;;;;5058550;28;20237;-60
2022/07/09 07:34:44;;;;;;;9.00;5.00;;;18.60;99.90;;;;;;5057617;28;20593;-60
2022/07/09 07:37:13;;;;;;;8.33;4.53;;;18.70;99.90;;;;;;5059215;28;20231;-60
2022/07/09 07:39:41;;;;;;;7.57;4.40;;;18.80;99.90;;;;;;5059771;28;20232;-59
2022/07/09 07:42:09;;;;;;;7.73;4.23;;;18.90;99.90;;;;;;5056988;28;20226;-60
2022/07/09 07:44:37;;;;;;;5.73;4.20;;;18.90;99.90;;;;;;5052229;28;20260;-63
2022/07/09 07:47:06;;;;;;;6.27;3.80;;;19.10;99.90;;;;;;5058752;28;20737;-58
2022/07/09 07:49:34;;;;;;;6.03;4.03;;;19.40;99.90;;;;;;5060152;28;20229;-60
2022/07/09 07:52:03;;;;;;;6.03;3.73;;;19.60;99.90;;;;;;5059602;28;20752;-62
2022/07/09 07:54:33;;;;;;;5.57;4.07;;;19.70;99.90;;;;;;5059202;28;20227;-61
2022/07/09 07:57:01;;;;;;;4.53;3.97;;;19.90;99.90;;;;;;5055908;28;20234;-59
2022/07/09 07:59:29;;;;;;;7.53;4.07;;;19.80;99.90;;;;;;5051081;28;20231;-58
2022/07/09 08:01:57;;;;;;;4.33;3.53;;;19.80;99.90;;;;;;5054929;28;20281;-60
2022/07/09 08:04:25;;;;;;;5.73;3.37;;;20.00;99.90;;;;;;5052685;28;20227;-59
2022/07/09 08:06:54;;;;;;;4.33;3.10;;;20.30;99.90;;;;;;5054221;28;20702;-59
2022/07/09 08:09:22;;;;;;;4.57;2.67;;;20.70;99.90;;;;;;5052310;28;20725;-60
2022/07/09 08:11:51;;;;;;;5.93;3.30;;;20.90;99.90;;;;;;5053596;28;20223;-59
2022/07/09 08:14:20;;;;;;;5.57;3.00;;;20.80;99.90;;;;;;5052727;28;20699;-59
2022/07/09 08:16:48;;;;;;;5.47;3.13;;;20.70;99.90;;;;;;5054056;28;20583;-59
2022/07/09 08:19:17;;;;;;;4.23;2.30;;;20.50;99.90;;;;;;5052577;28;20216;-59
2022/07/09 08:21:45;;;;;;;3.77;2.17;;;20.30;99.90;;;;;;5053220;28;20228;-60
2022/07/09 08:24:13;;;;;;;5.93;2.57;;;20.20;99.90;;;;;;5052174;28;20574;-59
2022/07/09 08:26:42;;;;;;;4.33;2.30;;;20.20;99.90;;;;;;5051814;28;20231;-60
2022/07/09 08:29:11;;;;;;;4.77;2.37;;;20.40;99.90;;;;;;5051378;28;20241;-59
2022/07/09 08:31:39;;;;;;;2.93;2.20;;;20.40;99.90;;;;;;5051545;28;20571;-59
2022/07/09 08:34:08;;;;;;;5.60;2.10;;;20.10;99.90;;;;;;5051965;28;20579;-59
2022/07/09 08:36:36;;;;;;;4.77;2.30;;;19.80;99.90;;;;;;5053216;28;20753;-59
2022/07/09 08:39:04;;;;;;;3.17;1.73;;;19.50;99.90;;;;;;5052041;28;20566;-59
2022/07/09 08:41:32;;;;;;;3.83;1.93;;;19.20;99.90;;;;;;5053976;28;20234;-59
2022/07/09 08:44:03;;;;;;;2.87;1.87;;;19.10;99.90;;;;;;5053007;28;20226;-60
2022/07/09 08:46:34;;;;;;;4.80;2.10;;;19.00;99.90;;;;;;5052164;28;20687;-58
2022/07/09 08:49:08;;;;;;;4.77;2.20;;;19.00;99.90;;;;;;5051334;28;20316;-60
2022/07/09 08:51:37;;;;;;;4.53;2.00;;;19.40;99.90;;;;;;5036071;28;20687;-59
2022/07/09 08:54:08;;;;;;;3.23;1.63;;;19.60;99.90;;;;;;5052514;28;20612;-60
2022/07/09 08:56:36;;;;;;;4.67;1.80;;;20.20;99.90;;;;;;5052812;28;20582;-60
2022/07/09 08:59:04;;;;;;;3.57;1.60;;;20.90;99.90;;;;;;5051853;28;20645;-60
2022/07/09 09:01:34;;;;;;;3.60;1.67;;;20.90;99.90;;;;;;5048371;28;20587;-59
2022/07/09 09:04:03;;;;;;;4.23;1.43;;;21.20;99.90;;;;;;5052491;28;20231;-60
2022/07/09 09:06:37;;;;;;;6.13;1.73;;;21.70;99.90;;;;;;5051943;28;20227;-58
2022/07/09 09:09:18;;;;;;;3.43;1.73;;;21.60;99.90;;;;;;5051188;28;20582;-60
2022/07/09 09:11:49;;;;;;;3.17;1.63;;;21.20;99.90;;;;;;5039936;28;20673;-60
2022/07/09 09:14:22;;;;;;;5.07;1.83;;;20.80;99.90;;;;;;5052200;28;20635;-60
2022/07/09 09:16:52;;;;;;;3.20;1.40;;;20.90;99.90;;;;;;5052688;28;20232;-60
2022/07/09 09:19:22;;;;;;;5.20;1.80;;;21.30;99.90;;;;;;5051183;28;20566;-60
2022/07/09 09:21:54;;;;;;;5.00;1.60;;;21.40;99.90;;;;;;5050867;28;20266;-58
2022/07/09 09:24:26;;;;;;;4.53;1.40;;;21.70;99.90;;;;;;5051203;28;20637;-58
2022/07/09 09:27:00;;;;;;;3.07;1.40;;;21.90;99.90;;;;;;5047213;28;20216;-58
2022/07/09 09:29:39;;;;;;;4.40;1.60;;;21.80;99.90;;;;;;5049555;28;20233;-58
2022/07/09 09:32:12;;;;;;;2.67;1.37;;;21.30;99.90;;;;;;5051641;28;20765;-58
2022/07/09 09:34:41;;;;;;;4.83;1.73;;;21.00;99.90;;;;;;5050247;28;20582;-58
2022/07/09 09:37:10;;;;;;;5.17;1.70;;;20.90;99.90;;;;;;5045761;28;20577;-58
2022/07/09 09:39:38;;;;;;;3.67;1.60;;;20.70;99.90;;;;;;5043926;28;20227;-58
2022/07/09 09:42:10;;;;;;;5.80;1.40;;;20.90;99.90;;;;;;5051617;28;20227;-58
2022/07/09 09:44:40;;;;;;;3.47;1.60;;;21.80;99.90;;;;;;5046517;28;20227;-58
2022/07/09 09:47:08;;;;;;;4.90;1.67;;;22.90;99.90;;;;;;5050526;28;20321;-58
2022/07/09 09:49:38;;;;;;;5.13;1.43;;;24.00;99.90;;;;;;5052069;28;20231;-58
2022/07/09 09:52:09;;;;;;;2.73;1.33;;;23.30;99.90;;;;;;5051948;28;20314;-58
2022/07/09 09:54:39;;;;;;;7.53;1.47;;;22.70;99.90;;;;;;5054310;28;20560;-58
2022/07/09 09:57:09;;;;;;;3.17;1.47;;;21.70;99.90;;;;;;5054551;28;20228;-58
2022/07/09 09:59:39;;;;;;;4.00;1.50;;;20.90;99.90;;;;;;5050249;28;20223;-58
2022/07/09 10:02:10;;;;;;;3.03;1.53;;;20.40;99.90;;;;;;5055152;28;20576;-58
2022/07/09 10:04:40;;;;;;;3.57;1.47;;;19.90;99.90;;;;;;5054347;28;20599;-58
2022/07/09 10:07:10;;;;;;;4.50;1.70;;;20.00;99.90;;;;;;5054958;28;20254;-58
2022/07/09 10:09:38;;;;;;;3.53;1.60;;;20.50;99.90;;;;;;5055452;28;20745;-58
2022/07/09 10:12:09;;;;;;;5.53;1.60;;;21.10;99.90;;;;;;5050269;28;20223;-58
2022/07/09 10:14:39;;;;;;;3.70;1.57;;;21.80;99.90;;;;;;5049848;28;20255;-58
2022/07/09 10:17:13;;;;;;;5.37;1.63;;;22.80;99.90;;;;;;5054461;28;20236;-58
2022/07/09 10:19:54;;;;;;;3.27;1.47;;;23.80;99.90;;;;;;5055076;28;20574;-59
2022/07/09 10:22:23;;;;;;;3.17;1.27;;;24.60;99.90;;;;;;5050737;28;20240;-59
2022/07/09 10:24:53;;;;;;;4.00;1.33;;;25.00;99.90;;;;;;5055265;28;20221;-59
2022/07/09 10:27:21;;;;;;;2.03;1.47;;;25.20;99.90;;;;;;5053468;28;20236;-59
2022/07/09 10:29:58;;;;;;;3.20;1.30;;;24.80;99.90;;;;;;5055159;28;20226;-58
2022/07/09 10:32:27;;;;;;;2.13;1.00;;;24.10;99.90;;;;;;5050677;28;20232;-57
2022/07/09 10:34:59;;;;;;;2.07;1.20;;;23.00;99.90;;;;;;5053401;28;20687;-58
2022/07/09 10:37:42;;;;;;;5.27;1.20;;;22.10;99.90;;;;;;5052959;28;20236;-57
2022/07/09 10:40:12;;;;;;;1.77;1.20;;;21.00;99.90;;;;;;5054527;28;20220;-56
2022/07/09 10:42:42;;;;;;;3.03;1.50;;;20.30;99.90;;;;;;5054289;28;20698;-57
2022/07/09 10:45:36;;;;;;;2.13;1.00;;;20.00;99.90;;;;;;5054203;28;20228;-57
2022/07/09 10:48:06;;;;;;;3.67;1.20;;;19.70;99.90;;;;;;5049376;28;20228;-57
2022/07/09 10:50:38;;;;;;;1.73;1.23;;;19.70;99.90;;;;;;5053635;28;20233;-57
2022/07/09 10:53:07;;;;;;;2.73;1.30;;;19.60;99.90;;;;;;5054076;28;20234;-57
2022/07/09 10:55:35;;;;;;;2.53;1.27;;;19.60;99.90;;;;;;5054295;28;20219;-57
2022/07/09 10:58:07;;;;;;;2.73;1.60;;;19.50;99.90;;;;;;5054225;28;20224;-57
2022/07/09 11:00:35;;;;;;;2.57;1.67;;;19.50;99.90;;;;;;5053941;28;20227;-57
2022/07/09 11:03:05;;;;;;;3.43;2.00;;;19.60;99.90;;;;;;5054520;28;20230;-57
2022/07/09 11:05:44;;;;;;;3.10;1.60;;;20.00;99.90;;;;;;5047221;28;20769;-56
2022/07/09 11:08:13;;;;;;;3.07;1.63;;;20.40;99.90;;;;;;5044637;28;20622;-57
2022/07/09 11:10:41;;;;;;;3.93;2.00;;;21.00;99.90;;;;;;5054527;28;20243;-57
2022/07/09 11:13:17;;;;;;;1.90;1.10;;;21.20;99.90;;;;;;5054462;28;20717;-57
2022/07/09 11:15:45;;;;;;;3.93;1.40;;;22.10;99.90;;;;;;5054174;28;20234;-57
2022/07/09 11:18:14;;;;;;;2.60;1.40;;;22.90;99.90;;;;;;5055835;28;20676;-57
2022/07/09 11:20:45;;;;;;;3.63;1.30;;;22.30;99.90;;;;;;5054148;28;20232;-57
2022/07/09 11:23:14;;;;;;;3.93;1.50;;;21.70;99.90;;;;;;5054102;28;20306;-57
2022/07/09 11:25:43;;;;;;;2.87;1.40;;;22.10;99.90;;;;;;5054231;28;20228;-57
2022/07/09 11:28:20;;;;;;;4.73;1.37;;;22.80;99.90;;;;;;5054533;28;20227;-56
2022/07/09 11:30:59;;;;;;;3.17;1.30;;;23.60;99.90;;;;;;5053166;28;20231;-57
2022/07/09 11:36:16;;;;;;;2.10;1.40;;;22.50;99.90;;;;;;5053474;28;20290;-59
2022/07/09 11:38:49;;;;;;;4.97;1.50;;;22.70;99.90;;;;;;5052366;28;20235;-56
2022/07/09 11:41:17;;;;;;;4.63;1.70;;;22.60;99.90;;;;;;5054022;28;20228;-57
2022/07/09 11:43:48;;;;;;;4.70;1.50;;;22.20;99.90;;;;;;5049745;28;20224;-57
2022/07/09 11:46:17;;;;;;;4.40;1.43;;;22.30;99.90;;;;;;5053578;28;20239;-57
2022/07/09 11:48:52;;;;;;;4.70;1.60;;;21.80;99.90;;;;;;5052054;28;20306;-57
2022/07/09 11:51:32;;;;;;;3.43;1.57;;;21.90;99.90;;;;;;5053343;28;20227;-56
2022/07/09 11:54:00;;;;;;;5.20;1.47;;;22.00;99.90;;;;;;5053311;28;20228;-57
2022/07/09 11:56:39;;;;;;;4.77;1.90;;;22.10;99.90;;;;;;5053869;28;20729;-57
2022/07/09 11:59:08;;;;;;;5.00;1.63;;;22.40;99.90;;;;;;5052572;28;20228;-57
2022/07/09 12:01:37;;;;;;;3.83;1.50;;;22.40;99.90;;;;;;5053218;28;20232;-57
2022/07/09 12:04:05;;;;;;;4.40;1.63;;;21.90;99.90;;;;;;5044794;28;20232;-57
2022/07/09 12:06:35;;;;;;;4.83;1.40;;;21.90;99.90;;;;;;5053726;28;20636;-57
2022/07/09 12:09:05;;;;;;;4.00;1.60;;;21.80;99.90;;;;;;5051878;28;20230;-57
2022/07/09 12:11:33;;;;;;;5.80;1.50;;;21.50;99.90;;;;;;5053445;28;20234;-57
2022/07/09 12:14:01;;;;;;;4.67;1.60;;;21.30;99.90;;;;;;5051492;28;20260;-57
2022/07/09 12:16:29;;;;;;;5.10;1.80;;;21.30;99.90;;;;;;5052680;28;20227;-57
2022/07/09 12:18:58;;;;;;;5.57;1.90;;;21.20;99.90;;;;;;5051861;28;20231;-57
2022/07/09 12:21:26;;;;;;;6.97;2.23;;;21.20;99.90;;;;;;5052934;28;20248;-56
2022/07/09 12:23:56;;;;;;;8.03;2.17;;;21.50;99.90;;;;;;5040682;28;20223;-57
2022/07/09 12:26:24;;;;;;;5.63;2.07;;;21.70;99.90;;;;;;5053087;28;20232;-56
2022/07/09 12:28:52;;;;;;;4.90;1.70;;;21.90;99.90;;;;;;5052051;28;20251;-57
2022/07/09 12:31:25;;;;;;;7.20;1.73;;;21.90;99.90;;;;;;5052794;28;20725;-55
2022/07/09 12:33:53;;;;;;;5.47;1.87;;;21.50;99.90;;;;;;5052879;28;20224;-56
2022/07/09 12:36:22;;;;;;;6.70;1.70;;;21.20;99.90;;;;;;5052984;28;20266;-58
2022/07/09 12:39:11;;;;;;;6.23;1.80;;;21.10;99.90;;;;;;5051542;28;20223;-57
2022/07/09 12:41:39;;;;;;;3.70;1.23;;;21.20;99.90;;;;;;5040853;28;20224;-57
2022/07/09 12:44:08;;;;;;;7.43;1.70;;;21.20;99.90;;;;;;5052562;28;20263;-57
2022/07/09 12:46:36;;;;;;;3.53;1.30;;;21.20;99.90;;;;;;5052159;28;20236;-57
2022/07/09 12:49:05;;;;;;;4.30;1.33;;;21.10;99.90;;;;;;5051996;28;20256;-57
2022/07/09 12:51:33;;;;;;;7.27;1.50;;;21.20;99.90;;;;;;5053822;28;20624;-57
2022/07/09 12:54:01;;;;;;;3.80;1.20;;;21.30;99.90;;;;;;5050321;28;20224;-57
2022/07/09 12:56:31;;;;;;;5.17;1.40;;;21.40;99.90;;;;;;5052249;28;20332;-57
2022/07/09 12:59:19;;;;;;;5.13;1.13;;;21.40;99.90;;;;;;5052071;28;20687;-57